sensor_id;sensor_type;location;lat;lon;timestamp;temperature;humidity
44305;DHT22;30019;50.576;8.568;2024-02-21T00:01:52;7.60;66.30
44305;DHT22;30019;50.576;8.568;2024-02-21T00:04:18;7.60;66.30
44305;DHT22;30019;50.576;8.568;2024-02-21T00:06:43;7.60;66.60
44305;DHT22;30019;50.576;8.568;2024-02-21T00:09:09;7.70;67.20
44305;DHT22;30019;50.576;8.568;2024-02-21T00:11:35;7.70;67.20
44305;DHT22;30019;50.576;8.568;2024-02-21T00:14:00;7.60;67.30
44305;DHT22;30019;50.576;8.568;2024-02-21T00:16:26;7.60;67.20
44305;DHT22;30019;50.576;8.568;2024-02-21T00:18:52;7.60;67.60
44305;DHT22;30019;50.576;8.568;2024-02-21T00:21:17;7.60;67.80
44305;DHT22;30019;50.576;8.568;2024-02-21T00:23:44;7.60;67.70
44305;DHT22;30019;50.576;8.568;2024-02-21T00:26:14;7.60;67.80
44305;DHT22;30019;50.576;8.568;2024-02-21T00:28:40;7.60;68.20
44305;DHT22;30019;50.576;8.568;2024-02-21T00:31:05;7.60;68.30
44305;DHT22;30019;50.576;8.568;2024-02-21T00:33:31;7.60;68.10
44305;DHT22;30019;50.576;8.568;2024-02-21T00:35:56;7.60;68.10
44305;DHT22;30019;50.576;8.568;2024-02-21T00:38:22;7.50;68.40
44305;DHT22;30019;50.576;8.568;2024-02-21T00:40:47;7.50;68.10
44305;DHT22;30019;50.576;8.568;2024-02-21T00:43:13;7.50;68.50
44305;DHT22;30019;50.576;8.568;2024-02-21T00:45:39;7.50;69.00
44305;DHT22;30019;50.576;8.568;2024-02-21T00:48:05;7.50;68.60
44305;DHT22;30019;50.576;8.568;2024-02-21T00:50:30;7.60;68.80
44305;DHT22;30019;50.576;8.568;2024-02-21T00:52:56;7.60;69.10
44305;DHT22;30019;50.576;8.568;2024-02-21T00:55:21;7.60;68.20
44305;DHT22;30019;50.576;8.568;2024-02-21T00:57:47;7.60;68.60
44305;DHT22;30019;50.576;8.568;2024-02-21T01:00:13;7.60;69.10
44305;DHT22;30019;50.576;8.568;2024-02-21T01:02:38;7.60;68.50
44305;DHT22;30019;50.576;8.568;2024-02-21T01:05:04;7.60;68.50
44305;DHT22;30019;50.576;8.568;2024-02-21T01:07:30;7.60;68.90
44305;DHT22;30019;50.576;8.568;2024-02-21T01:09:56;7.60;68.30
44305;DHT22;30019;50.576;8.568;2024-02-21T01:12:21;7.60;68.10
44305;DHT22;30019;50.576;8.568;2024-02-21T01:14:47;7.60;68.00
44305;DHT22;30019;50.576;8.568;2024-02-21T01:17:13;7.60;68.20
44305;DHT22;30019;50.576;8.568;2024-02-21T01:19:38;7.60;67.90
44305;DHT22;30019;50.576;8.568;2024-02-21T01:22:04;7.60;68.10
44305;DHT22;30019;50.576;8.568;2024-02-21T01:24:30;7.60;67.80
44305;DHT22;30019;50.576;8.568;2024-02-21T01:26:55;7.70;68.10
44305;DHT22;30019;50.576;8.568;2024-02-21T01:29:21;7.70;67.20
44305;DHT22;30019;50.576;8.568;2024-02-21T01:31:46;7.60;66.50
44305;DHT22;30019;50.576;8.568;2024-02-21T01:34:13;7.60;66.40
44305;DHT22;30019;50.576;8.568;2024-02-21T01:36:38;7.70;66.70
44305;DHT22;30019;50.576;8.568;2024-02-21T01:39:04;7.70;66.90
44305;DHT22;30019;50.576;8.568;2024-02-21T01:41:30;7.70;67.20
44305;DHT22;30019;50.576;8.568;2024-02-21T01:43:56;7.70;66.30
44305;DHT22;30019;50.576;8.568;2024-02-21T01:46:23;7.70;66.50
44305;DHT22;30019;50.576;8.568;2024-02-21T01:48:53;7.60;66.20
44305;DHT22;30019;50.576;8.568;2024-02-21T01:51:19;7.60;66.70
44305;DHT22;30019;50.576;8.568;2024-02-21T01:53:45;7.70;66.30
44305;DHT22;30019;50.576;8.568;2024-02-21T01:56:12;7.70;65.80
44305;DHT22;30019;50.576;8.568;2024-02-21T01:58:40;7.70;65.90
44305;DHT22;30019;50.576;8.568;2024-02-21T02:01:07;7.70;65.80
44305;DHT22;30019;50.576;8.568;2024-02-21T02:03:33;7.70;66.20
44305;DHT22;30019;50.576;8.568;2024-02-21T02:05:59;7.70;65.70
44305;DHT22;30019;50.576;8.568;2024-02-21T02:08:25;7.60;65.80
44305;DHT22;30019;50.576;8.568;2024-02-21T02:10:52;7.60;65.90
44305;DHT22;30019;50.576;8.568;2024-02-21T02:13:17;7.70;66.30
44305;DHT22;30019;50.576;8.568;2024-02-21T02:18:09;7.60;65.20
44305;DHT22;30019;50.576;8.568;2024-02-21T02:20:35;7.60;65.70
44305;DHT22;30019;50.576;8.568;2024-02-21T02:25:43;7.60;65.80
44305;DHT22;30019;50.576;8.568;2024-02-21T02:28:09;7.60;65.60
44305;DHT22;30019;50.576;8.568;2024-02-21T02:30:35;7.60;65.90
44305;DHT22;30019;50.576;8.568;2024-02-21T02:33:02;7.60;65.30
44305;DHT22;30019;50.576;8.568;2024-02-21T02:35:28;7.60;64.80
44305;DHT22;30019;50.576;8.568;2024-02-21T02:37:54;7.60;65.90
44305;DHT22;30019;50.576;8.568;2024-02-21T02:40:19;7.60;65.40
44305;DHT22;30019;50.576;8.568;2024-02-21T02:42:45;7.60;65.50
44305;DHT22;30019;50.576;8.568;2024-02-21T02:45:11;7.60;66.10
44305;DHT22;30019;50.576;8.568;2024-02-21T02:47:36;7.70;66.50
44305;DHT22;30019;50.576;8.568;2024-02-21T02:50:02;7.60;65.30
44305;DHT22;30019;50.576;8.568;2024-02-21T02:52:28;7.60;65.80
44305;DHT22;30019;50.576;8.568;2024-02-21T02:54:53;7.60;65.70
44305;DHT22;30019;50.576;8.568;2024-02-21T02:57:21;7.60;65.40
44305;DHT22;30019;50.576;8.568;2024-02-21T02:59:50;7.60;65.60
44305;DHT22;30019;50.576;8.568;2024-02-21T03:02:16;7.60;65.70
44305;DHT22;30019;50.576;8.568;2024-02-21T03:04:43;7.60;65.40
44305;DHT22;30019;50.576;8.568;2024-02-21T03:07:09;7.50;65.60
44305;DHT22;30019;50.576;8.568;2024-02-21T03:09:37;7.50;65.90
44305;DHT22;30019;50.576;8.568;2024-02-21T03:12:03;7.60;65.40
44305;DHT22;30019;50.576;8.568;2024-02-21T03:14:29;7.60;65.00
44305;DHT22;30019;50.576;8.568;2024-02-21T03:16:54;7.60;65.60
44305;DHT22;30019;50.576;8.568;2024-02-21T03:19:20;7.50;65.40
44305;DHT22;30019;50.576;8.568;2024-02-21T03:21:46;7.60;65.70
44305;DHT22;30019;50.576;8.568;2024-02-21T03:24:11;7.60;65.10
44305;DHT22;30019;50.576;8.568;2024-02-21T03:26:37;7.50;65.40
44305;DHT22;30019;50.576;8.568;2024-02-21T03:29:03;7.50;65.40
44305;DHT22;30019;50.576;8.568;2024-02-21T03:31:29;7.50;65.40
44305;DHT22;30019;50.576;8.568;2024-02-21T03:33:54;7.50;65.30
44305;DHT22;30019;50.576;8.568;2024-02-21T03:36:20;7.50;65.10
44305;DHT22;30019;50.576;8.568;2024-02-21T03:38:45;7.50;65.10
44305;DHT22;30019;50.576;8.568;2024-02-21T03:41:11;7.40;65.40
44305;DHT22;30019;50.576;8.568;2024-02-21T03:43:38;7.40;65.30
44305;DHT22;30019;50.576;8.568;2024-02-21T03:46:04;7.40;65.50
44305;DHT22;30019;50.576;8.568;2024-02-21T03:48:30;7.40;66.00
44305;DHT22;30019;50.576;8.568;2024-02-21T03:50:55;7.40;65.60
44305;DHT22;30019;50.576;8.568;2024-02-21T03:53:21;7.50;65.70
44305;DHT22;30019;50.576;8.568;2024-02-21T03:55:46;7.50;65.40
44305;DHT22;30019;50.576;8.568;2024-02-21T03:58:12;7.50;65.30
44305;DHT22;30019;50.576;8.568;2024-02-21T04:00:37;7.40;65.60
44305;DHT22;30019;50.576;8.568;2024-02-21T04:03:04;7.40;65.60
44305;DHT22;30019;50.576;8.568;2024-02-21T04:05:30;7.40;65.40
44305;DHT22;30019;50.576;8.568;2024-02-21T04:07:55;7.50;65.50
44305;DHT22;30019;50.576;8.568;2024-02-21T04:10:21;7.50;65.10
44305;DHT22;30019;50.576;8.568;2024-02-21T04:12:46;7.50;65.50
44305;DHT22;30019;50.576;8.568;2024-02-21T04:15:12;7.40;66.60
44305;DHT22;30019;50.576;8.568;2024-02-21T04:17:37;7.40;66.10
44305;DHT22;30019;50.576;8.568;2024-02-21T04:20:04;7.40;65.80
44305;DHT22;30019;50.576;8.568;2024-02-21T04:22:36;7.40;66.20
44305;DHT22;30019;50.576;8.568;2024-02-21T04:25:01;7.40;65.60
44305;DHT22;30019;50.576;8.568;2024-02-21T04:27:27;7.50;65.90
44305;DHT22;30019;50.576;8.568;2024-02-21T04:29:53;7.40;66.00
44305;DHT22;30019;50.576;8.568;2024-02-21T04:32:19;7.50;65.60
44305;DHT22;30019;50.576;8.568;2024-02-21T04:34:44;7.40;65.70
44305;DHT22;30019;50.576;8.568;2024-02-21T04:37:10;7.50;65.80
44305;DHT22;30019;50.576;8.568;2024-02-21T04:39:35;7.50;65.70
44305;DHT22;30019;50.576;8.568;2024-02-21T04:42:01;7.50;65.70
44305;DHT22;30019;50.576;8.568;2024-02-21T04:44:26;7.50;65.80
44305;DHT22;30019;50.576;8.568;2024-02-21T04:46:52;7.40;66.20
44305;DHT22;30019;50.576;8.568;2024-02-21T04:49:18;7.40;66.00
44305;DHT22;30019;50.576;8.568;2024-02-21T04:51:44;7.50;66.60
44305;DHT22;30019;50.576;8.568;2024-02-21T04:54:09;7.50;66.20
44305;DHT22;30019;50.576;8.568;2024-02-21T04:56:35;7.50;66.20
44305;DHT22;30019;50.576;8.568;2024-02-21T04:59:00;7.50;66.70
44305;DHT22;30019;50.576;8.568;2024-02-21T05:01:26;7.40;66.30
44305;DHT22;30019;50.576;8.568;2024-02-21T05:03:53;7.40;66.20
44305;DHT22;30019;50.576;8.568;2024-02-21T05:06:18;7.50;66.80
44305;DHT22;30019;50.576;8.568;2024-02-21T05:08:44;7.50;66.50
44305;DHT22;30019;50.576;8.568;2024-02-21T05:11:10;7.50;66.50
44305;DHT22;30019;50.576;8.568;2024-02-21T05:13:35;7.50;66.60
44305;DHT22;30019;50.576;8.568;2024-02-21T05:16:01;7.50;66.40
44305;DHT22;30019;50.576;8.568;2024-02-21T05:18:28;7.50;66.50
44305;DHT22;30019;50.576;8.568;2024-02-21T05:20:53;7.50;66.50
44305;DHT22;30019;50.576;8.568;2024-02-21T05:23:19;7.40;66.80
44305;DHT22;30019;50.576;8.568;2024-02-21T05:25:45;7.40;66.40
44305;DHT22;30019;50.576;8.568;2024-02-21T05:28:11;7.40;66.80
44305;DHT22;30019;50.576;8.568;2024-02-21T05:30:36;7.40;67.50
44305;DHT22;30019;50.576;8.568;2024-02-21T05:33:05;7.40;67.70
44305;DHT22;30019;50.576;8.568;2024-02-21T05:35:31;7.50;67.10
44305;DHT22;30019;50.576;8.568;2024-02-21T05:37:57;7.50;66.40
44305;DHT22;30019;50.576;8.568;2024-02-21T05:40:22;7.50;66.00
44305;DHT22;30019;50.576;8.568;2024-02-21T05:42:48;7.60;66.20
44305;DHT22;30019;50.576;8.568;2024-02-21T05:45:14;7.50;65.90
44305;DHT22;30019;50.576;8.568;2024-02-21T05:47:41;7.50;66.30
44305;DHT22;30019;50.576;8.568;2024-02-21T05:50:07;7.50;66.00
44305;DHT22;30019;50.576;8.568;2024-02-21T05:52:32;7.60;66.00
44305;DHT22;30019;50.576;8.568;2024-02-21T05:54:58;7.60;65.70
44305;DHT22;30019;50.576;8.568;2024-02-21T05:57:23;7.60;65.40
44305;DHT22;30019;50.576;8.568;2024-02-21T05:59:49;7.60;65.20
44305;DHT22;30019;50.576;8.568;2024-02-21T06:02:15;7.60;65.90
44305;DHT22;30019;50.576;8.568;2024-02-21T06:04:40;7.60;66.10
44305;DHT22;30019;50.576;8.568;2024-02-21T06:07:08;7.60;65.10
44305;DHT22;30019;50.576;8.568;2024-02-21T06:09:34;7.60;65.30
44305;DHT22;30019;50.576;8.568;2024-02-21T06:11:59;7.50;65.10
44305;DHT22;30019;50.576;8.568;2024-02-21T06:14:25;7.60;65.10
44305;DHT22;30019;50.576;8.568;2024-02-21T06:16:50;7.60;64.70
44305;DHT22;30019;50.576;8.568;2024-02-21T06:19:16;7.60;64.70
44305;DHT22;30019;50.576;8.568;2024-02-21T06:21:41;7.50;64.80
44305;DHT22;30019;50.576;8.568;2024-02-21T06:24:07;7.60;64.50
44305;DHT22;30019;50.576;8.568;2024-02-21T06:26:33;7.50;64.50
44305;DHT22;30019;50.576;8.568;2024-02-21T06:28:58;7.60;65.30
44305;DHT22;30019;50.576;8.568;2024-02-21T06:31:25;7.50;65.30
44305;DHT22;30019;50.576;8.568;2024-02-21T06:33:51;7.50;65.40
44305;DHT22;30019;50.576;8.568;2024-02-21T06:36:17;7.60;65.60
44305;DHT22;30019;50.576;8.568;2024-02-21T06:38:42;7.60;64.50
44305;DHT22;30019;50.576;8.568;2024-02-21T06:41:17;7.60;64.80
44305;DHT22;30019;50.576;8.568;2024-02-21T06:43:47;7.60;65.40
44305;DHT22;30019;50.576;8.568;2024-02-21T06:46:24;7.60;65.00
44305;DHT22;30019;50.576;8.568;2024-02-21T06:48:50;7.60;65.50
44305;DHT22;30019;50.576;8.568;2024-02-21T06:51:16;7.70;64.30
44305;DHT22;30019;50.576;8.568;2024-02-21T06:53:41;7.70;64.30
44305;DHT22;30019;50.576;8.568;2024-02-21T06:56:08;7.70;63.90
44305;DHT22;30019;50.576;8.568;2024-02-21T06:58:33;7.70;64.00
44305;DHT22;30019;50.576;8.568;2024-02-21T07:00:59;7.70;64.40
44305;DHT22;30019;50.576;8.568;2024-02-21T07:03:24;7.70;64.50
44305;DHT22;30019;50.576;8.568;2024-02-21T07:05:50;7.70;63.10
44305;DHT22;30019;50.576;8.568;2024-02-21T07:08:15;7.70;64.20
44305;DHT22;30019;50.576;8.568;2024-02-21T07:10:41;7.70;63.80
44305;DHT22;30019;50.576;8.568;2024-02-21T07:13:07;7.80;63.70
44305;DHT22;30019;50.576;8.568;2024-02-21T07:15:32;7.70;63.10
44305;DHT22;30019;50.576;8.568;2024-02-21T07:17:58;7.70;62.30
44305;DHT22;30019;50.576;8.568;2024-02-21T07:20:24;7.70;62.40
44305;DHT22;30019;50.576;8.568;2024-02-21T07:22:50;7.70;63.30
44305;DHT22;30019;50.576;8.568;2024-02-21T07:25:16;7.80;63.50
44305;DHT22;30019;50.576;8.568;2024-02-21T07:27:43;7.70;63.30
44305;DHT22;30019;50.576;8.568;2024-02-21T07:30:09;7.70;62.80
44305;DHT22;30019;50.576;8.568;2024-02-21T07:32:34;7.80;62.90
44305;DHT22;30019;50.576;8.568;2024-02-21T07:35:00;7.80;62.60
44305;DHT22;30019;50.576;8.568;2024-02-21T07:37:25;7.80;62.30
44305;DHT22;30019;50.576;8.568;2024-02-21T07:39:51;7.80;62.10
44305;DHT22;30019;50.576;8.568;2024-02-21T07:42:17;7.80;62.10
44305;DHT22;30019;50.576;8.568;2024-02-21T07:44:42;7.80;61.60
44305;DHT22;30019;50.576;8.568;2024-02-21T07:47:08;7.80;61.90
44305;DHT22;30019;50.576;8.568;2024-02-21T07:49:41;7.90;61.50
44305;DHT22;30019;50.576;8.568;2024-02-21T07:52:07;7.90;62.10
44305;DHT22;30019;50.576;8.568;2024-02-21T07:54:33;8.00;62.10
44305;DHT22;30019;50.576;8.568;2024-02-21T07:56:58;8.00;60.80
44305;DHT22;30019;50.576;8.568;2024-02-21T07:59:24;8.00;61.90
44305;DHT22;30019;50.576;8.568;2024-02-21T08:01:49;8.00;61.40
44305;DHT22;30019;50.576;8.568;2024-02-21T08:04:15;8.00;60.70
44305;DHT22;30019;50.576;8.568;2024-02-21T08:06:40;8.00;61.30
44305;DHT22;30019;50.576;8.568;2024-02-21T08:09:06;8.00;60.80
44305;DHT22;30019;50.576;8.568;2024-02-21T08:11:31;8.00;60.60
44305;DHT22;30019;50.576;8.568;2024-02-21T08:13:57;8.10;60.60
44305;DHT22;30019;50.576;8.568;2024-02-21T08:16:23;8.20;60.90
44305;DHT22;30019;50.576;8.568;2024-02-21T08:18:49;8.20;60.40
44305;DHT22;30019;50.576;8.568;2024-02-21T08:21:14;8.10;59.70
44305;DHT22;30019;50.576;8.568;2024-02-21T08:23:40;8.30;59.70
44305;DHT22;30019;50.576;8.568;2024-02-21T08:26:05;8.30;60.00
44305;DHT22;30019;50.576;8.568;2024-02-21T08:28:31;8.40;60.70
44305;DHT22;30019;50.576;8.568;2024-02-21T08:30:56;8.40;59.20
44305;DHT22;30019;50.576;8.568;2024-02-21T08:33:22;8.40;59.20
44305;DHT22;30019;50.576;8.568;2024-02-21T08:35:51;8.40;59.40
44305;DHT22;30019;50.576;8.568;2024-02-21T08:38:17;8.40;59.40
44305;DHT22;30019;50.576;8.568;2024-02-21T08:40:42;8.40;59.40
44305;DHT22;30019;50.576;8.568;2024-02-21T08:43:08;8.60;60.00
44305;DHT22;30019;50.576;8.568;2024-02-21T08:45:33;8.50;59.50
44305;DHT22;30019;50.576;8.568;2024-02-21T08:47:59;8.60;58.80
44305;DHT22;30019;50.576;8.568;2024-02-21T08:50:24;8.60;58.70
44305;DHT22;30019;50.576;8.568;2024-02-21T08:52:50;8.70;59.50
44305;DHT22;30019;50.576;8.568;2024-02-21T08:55:16;8.60;58.70
44305;DHT22;30019;50.576;8.568;2024-02-21T08:57:41;8.70;58.50
44305;DHT22;30019;50.576;8.568;2024-02-21T09:00:07;8.90;58.00
44305;DHT22;30019;50.576;8.568;2024-02-21T09:02:40;8.70;57.20
44305;DHT22;30019;50.576;8.568;2024-02-21T09:05:08;8.80;58.40
44305;DHT22;30019;50.576;8.568;2024-02-21T09:07:33;8.90;57.70
44305;DHT22;30019;50.576;8.568;2024-02-21T09:09:59;9.00;57.90
44305;DHT22;30019;50.576;8.568;2024-02-21T09:12:25;9.20;57.80
44305;DHT22;30019;50.576;8.568;2024-02-21T09:14:50;9.30;56.80
44305;DHT22;30019;50.576;8.568;2024-02-21T09:17:16;9.20;56.70
44305;DHT22;30019;50.576;8.568;2024-02-21T09:19:50;9.20;56.40
44305;DHT22;30019;50.576;8.568;2024-02-21T09:22:15;9.30;56.00
44305;DHT22;30019;50.576;8.568;2024-02-21T09:24:41;9.30;56.00
44305;DHT22;30019;50.576;8.568;2024-02-21T09:27:07;9.20;55.80
44305;DHT22;30019;50.576;8.568;2024-02-21T09:29:32;9.30;55.30
44305;DHT22;30019;50.576;8.568;2024-02-21T09:32:01;9.40;55.20
44305;DHT22;30019;50.576;8.568;2024-02-21T09:34:28;9.60;55.70
44305;DHT22;30019;50.576;8.568;2024-02-21T09:36:54;9.70;55.20
44305;DHT22;30019;50.576;8.568;2024-02-21T09:39:19;9.60;55.80
44305;DHT22;30019;50.576;8.568;2024-02-21T09:41:50;9.50;56.10
44305;DHT22;30019;50.576;8.568;2024-02-21T09:44:21;9.60;55.90
44305;DHT22;30019;50.576;8.568;2024-02-21T09:46:57;9.60;54.30
44305;DHT22;30019;50.576;8.568;2024-02-21T09:49:30;9.30;55.10
44305;DHT22;30019;50.576;8.568;2024-02-21T09:52:01;9.30;55.60
44305;DHT22;30019;50.576;8.568;2024-02-21T09:54:28;9.50;55.70
44305;DHT22;30019;50.576;8.568;2024-02-21T09:56:55;9.30;54.80
44305;DHT22;30019;50.576;8.568;2024-02-21T09:59:21;9.20;55.00
44305;DHT22;30019;50.576;8.568;2024-02-21T10:01:47;9.20;56.40
44305;DHT22;30019;50.576;8.568;2024-02-21T10:04:13;9.40;55.90
44305;DHT22;30019;50.576;8.568;2024-02-21T10:06:39;9.50;55.30
44305;DHT22;30019;50.576;8.568;2024-02-21T10:09:06;9.30;54.60
44305;DHT22;30019;50.576;8.568;2024-02-21T10:11:31;9.30;54.80
44305;DHT22;30019;50.576;8.568;2024-02-21T10:14:06;9.40;55.20
44305;DHT22;30019;50.576;8.568;2024-02-21T10:16:32;9.50;54.20
44305;DHT22;30019;50.576;8.568;2024-02-21T10:18:59;9.50;54.40
44305;DHT22;30019;50.576;8.568;2024-02-21T10:21:24;9.50;54.20
44305;DHT22;30019;50.576;8.568;2024-02-21T10:23:50;9.50;54.70
44305;DHT22;30019;50.576;8.568;2024-02-21T10:26:18;9.50;53.60
44305;DHT22;30019;50.576;8.568;2024-02-21T10:28:44;9.60;53.60
44305;DHT22;30019;50.576;8.568;2024-02-21T10:31:26;9.70;54.20
44305;DHT22;30019;50.576;8.568;2024-02-21T10:34:01;9.80;53.10
44305;DHT22;30019;50.576;8.568;2024-02-21T10:36:30;9.80;53.90
44305;DHT22;30019;50.576;8.568;2024-02-21T10:38:56;9.80;53.30
44305;DHT22;30019;50.576;8.568;2024-02-21T10:41:23;9.90;52.80
44305;DHT22;30019;50.576;8.568;2024-02-21T10:43:53;9.80;52.40
44305;DHT22;30019;50.576;8.568;2024-02-21T10:46:21;9.80;53.30
44305;DHT22;30019;50.576;8.568;2024-02-21T10:48:48;9.70;53.40
44305;DHT22;30019;50.576;8.568;2024-02-21T10:51:18;9.70;53.80
44305;DHT22;30019;50.576;8.568;2024-02-21T10:56:38;9.90;53.30
44305;DHT22;30019;50.576;8.568;2024-02-21T10:59:06;10.20;52.60
44305;DHT22;30019;50.576;8.568;2024-02-21T11:01:32;10.40;51.10
44305;DHT22;30019;50.576;8.568;2024-02-21T11:04:08;10.70;52.40
44305;DHT22;30019;50.576;8.568;2024-02-21T11:06:36;11.00;52.20
44305;DHT22;30019;50.576;8.568;2024-02-21T11:09:09;11.30;50.50
44305;DHT22;30019;50.576;8.568;2024-02-21T11:11:39;11.10;51.10
44305;DHT22;30019;50.576;8.568;2024-02-21T11:16:38;11.70;49.20
44305;DHT22;30019;50.576;8.568;2024-02-21T11:19:20;11.30;48.50
44305;DHT22;30019;50.576;8.568;2024-02-21T11:21:47;10.80;49.30
44305;DHT22;30019;50.576;8.568;2024-02-21T11:24:29;11.20;50.70
44305;DHT22;30019;50.576;8.568;2024-02-21T11:27:14;11.30;50.50
44305;DHT22;30019;50.576;8.568;2024-02-21T11:29:44;11.30;50.20
44305;DHT22;30019;50.576;8.568;2024-02-21T11:32:11;11.60;49.70
44305;DHT22;30019;50.576;8.568;2024-02-21T11:34:37;11.60;50.10
44305;DHT22;30019;50.576;8.568;2024-02-21T11:37:15;11.40;49.90
44305;DHT22;30019;50.576;8.568;2024-02-21T11:39:41;11.20;48.80
44305;DHT22;30019;50.576;8.568;2024-02-21T11:42:08;11.10;49.50
44305;DHT22;30019;50.576;8.568;2024-02-21T11:44:37;11.10;49.70
44305;DHT22;30019;50.576;8.568;2024-02-21T11:47:07;11.20;49.80
44305;DHT22;30019;50.576;8.568;2024-02-21T11:49:43;11.20;48.50
44305;DHT22;30019;50.576;8.568;2024-02-21T11:52:11;11.20;50.50
44305;DHT22;30019;50.576;8.568;2024-02-21T11:54:36;11.10;50.00
44305;DHT22;30019;50.576;8.568;2024-02-21T11:57:02;11.10;50.80
44305;DHT22;30019;50.576;8.568;2024-02-21T11:59:32;11.30;50.00
44305;DHT22;30019;50.576;8.568;2024-02-21T12:02:02;11.40;49.50
44305;DHT22;30019;50.576;8.568;2024-02-21T12:04:31;11.70;50.80
44305;DHT22;30019;50.576;8.568;2024-02-21T12:06:58;11.90;49.00
44305;DHT22;30019;50.576;8.568;2024-02-21T12:09:24;11.60;48.50
44305;DHT22;30019;50.576;8.568;2024-02-21T12:12:04;11.20;49.50
44305;DHT22;30019;50.576;8.568;2024-02-21T12:14:31;11.20;50.90
44305;DHT22;30019;50.576;8.568;2024-02-21T12:16:57;11.40;49.80
44305;DHT22;30019;50.576;8.568;2024-02-21T12:19:23;11.40;48.70
44305;DHT22;30019;50.576;8.568;2024-02-21T12:21:49;11.50;48.30
44305;DHT22;30019;50.576;8.568;2024-02-21T12:24:36;11.40;48.60
44305;DHT22;30019;50.576;8.568;2024-02-21T12:27:03;11.50;49.20
44305;DHT22;30019;50.576;8.568;2024-02-21T12:29:29;11.30;48.20
44305;DHT22;30019;50.576;8.568;2024-02-21T12:31:55;11.30;48.40
44305;DHT22;30019;50.576;8.568;2024-02-21T12:34:21;11.50;49.40
44305;DHT22;30019;50.576;8.568;2024-02-21T12:36:48;11.80;50.10
44305;DHT22;30019;50.576;8.568;2024-02-21T12:39:13;11.90;48.00
44305;DHT22;30019;50.576;8.568;2024-02-21T12:41:39;12.10;48.20
44305;DHT22;30019;50.576;8.568;2024-02-21T12:44:06;12.40;48.70
44305;DHT22;30019;50.576;8.568;2024-02-21T12:46:35;12.80;47.80
44305;DHT22;30019;50.576;8.568;2024-02-21T12:49:04;12.60;46.90
44305;DHT22;30019;50.576;8.568;2024-02-21T12:51:33;12.20;45.60
44305;DHT22;30019;50.576;8.568;2024-02-21T12:53:58;11.80;46.00
44305;DHT22;30019;50.576;8.568;2024-02-21T12:56:24;11.70;47.80
44305;DHT22;30019;50.576;8.568;2024-02-21T12:58:52;11.60;47.50
44305;DHT22;30019;50.576;8.568;2024-02-21T13:01:18;11.40;47.10
44305;DHT22;30019;50.576;8.568;2024-02-21T13:03:43;11.10;47.70
44305;DHT22;30019;50.576;8.568;2024-02-21T13:06:09;11.20;49.20
44305;DHT22;30019;50.576;8.568;2024-02-21T13:08:36;11.10;48.40
44305;DHT22;30019;50.576;8.568;2024-02-21T13:11:02;10.90;47.50
44305;DHT22;30019;50.576;8.568;2024-02-21T13:13:28;10.90;48.10
44305;DHT22;30019;50.576;8.568;2024-02-21T13:15:53;11.00;48.80
44305;DHT22;30019;50.576;8.568;2024-02-21T13:18:19;11.00;48.10
44305;DHT22;30019;50.576;8.568;2024-02-21T13:20:44;11.30;49.70
44305;DHT22;30019;50.576;8.568;2024-02-21T13:23:10;11.40;49.50
44305;DHT22;30019;50.576;8.568;2024-02-21T13:25:35;11.10;49.80
44305;DHT22;30019;50.576;8.568;2024-02-21T13:28:01;11.20;50.20
44305;DHT22;30019;50.576;8.568;2024-02-21T13:30:28;11.20;50.40
44305;DHT22;30019;50.576;8.568;2024-02-21T13:32:54;11.10;49.40
44305;DHT22;30019;50.576;8.568;2024-02-21T13:35:22;11.10;50.00
44305;DHT22;30019;50.576;8.568;2024-02-21T13:37:48;10.90;49.70
44305;DHT22;30019;50.576;8.568;2024-02-21T13:40:14;11.00;50.10
44305;DHT22;30019;50.576;8.568;2024-02-21T13:42:40;11.10;50.60
44305;DHT22;30019;50.576;8.568;2024-02-21T13:45:06;11.20;50.00
44305;DHT22;30019;50.576;8.568;2024-02-21T13:47:35;11.10;49.50
44305;DHT22;30019;50.576;8.568;2024-02-21T13:50:05;11.10;49.80
44305;DHT22;30019;50.576;8.568;2024-02-21T13:52:34;11.30;50.00
44305;DHT22;30019;50.576;8.568;2024-02-21T13:55:00;11.20;49.70
44305;DHT22;30019;50.576;8.568;2024-02-21T13:57:25;11.10;48.90
44305;DHT22;30019;50.576;8.568;2024-02-21T13:59:51;11.10;49.70
44305;DHT22;30019;50.576;8.568;2024-02-21T14:02:16;11.30;49.50
44305;DHT22;30019;50.576;8.568;2024-02-21T14:04:42;11.20;49.00
44305;DHT22;30019;50.576;8.568;2024-02-21T14:07:08;11.10;49.10
44305;DHT22;30019;50.576;8.568;2024-02-21T14:09:34;11.00;48.50
44305;DHT22;30019;50.576;8.568;2024-02-21T14:11:59;11.00;48.60
44305;DHT22;30019;50.576;8.568;2024-02-21T14:14:25;11.00;48.30
44305;DHT22;30019;50.576;8.568;2024-02-21T14:16:51;11.20;48.60
44305;DHT22;30019;50.576;8.568;2024-02-21T14:19:16;11.30;48.70
44305;DHT22;30019;50.576;8.568;2024-02-21T14:21:42;11.30;48.30
44305;DHT22;30019;50.576;8.568;2024-02-21T14:24:08;11.30;47.30
44305;DHT22;30019;50.576;8.568;2024-02-21T14:26:33;11.30;47.60
44305;DHT22;30019;50.576;8.568;2024-02-21T14:29:01;11.30;49.00
44305;DHT22;30019;50.576;8.568;2024-02-21T14:31:30;11.10;48.20
44305;DHT22;30019;50.576;8.568;2024-02-21T14:33:56;11.10;47.70
44305;DHT22;30019;50.576;8.568;2024-02-21T14:36:22;11.10;48.40
44305;DHT22;30019;50.576;8.568;2024-02-21T14:38:49;11.10;49.40
44305;DHT22;30019;50.576;8.568;2024-02-21T14:41:14;11.10;48.70
44305;DHT22;30019;50.576;8.568;2024-02-21T14:43:40;11.10;48.30
44305;DHT22;30019;50.576;8.568;2024-02-21T14:46:06;11.10;49.40
44305;DHT22;30019;50.576;8.568;2024-02-21T14:48:32;11.00;48.80
44305;DHT22;30019;50.576;8.568;2024-02-21T14:50:58;11.00;49.80
44305;DHT22;30019;50.576;8.568;2024-02-21T14:53:24;10.80;48.80
44305;DHT22;30019;50.576;8.568;2024-02-21T14:55:50;10.80;49.90
44305;DHT22;30019;50.576;8.568;2024-02-21T14:58:16;10.90;49.30
44305;DHT22;30019;50.576;8.568;2024-02-21T15:00:43;10.80;49.30
44305;DHT22;30019;50.576;8.568;2024-02-21T15:03:09;10.70;49.30
44305;DHT22;30019;50.576;8.568;2024-02-21T15:05:41;10.80;50.00
44305;DHT22;30019;50.576;8.568;2024-02-21T15:08:06;10.70;48.70
44305;DHT22;30019;50.576;8.568;2024-02-21T15:10:36;10.70;49.00
44305;DHT22;30019;50.576;8.568;2024-02-21T15:13:02;10.70;49.40
44305;DHT22;30019;50.576;8.568;2024-02-21T15:15:28;10.70;49.10
44305;DHT22;30019;50.576;8.568;2024-02-21T15:17:53;10.70;49.30
44305;DHT22;30019;50.576;8.568;2024-02-21T15:20:19;10.70;49.40
44305;DHT22;30019;50.576;8.568;2024-02-21T15:22:45;10.80;50.70
44305;DHT22;30019;50.576;8.568;2024-02-21T15:25:10;10.80;50.90
44305;DHT22;30019;50.576;8.568;2024-02-21T15:27:43;10.70;51.00
44305;DHT22;30019;50.576;8.568;2024-02-21T15:30:10;10.70;51.80
44305;DHT22;30019;50.576;8.568;2024-02-21T15:32:36;10.60;52.60
44305;DHT22;30019;50.576;8.568;2024-02-21T15:35:05;10.50;53.50
44305;DHT22;30019;50.576;8.568;2024-02-21T15:37:34;10.30;53.10
44305;DHT22;30019;50.576;8.568;2024-02-21T15:40:00;10.40;53.30
44305;DHT22;30019;50.576;8.568;2024-02-21T15:42:26;10.30;53.90
44305;DHT22;30019;50.576;8.568;2024-02-21T15:44:52;10.20;54.40
44305;DHT22;30019;50.576;8.568;2024-02-21T15:47:18;10.10;54.70
44305;DHT22;30019;50.576;8.568;2024-02-21T15:49:47;10.00;54.70